createdAt,value
2018-11-20T00:01:49.346Z,31.90
2018-11-20T00:04:55.822Z,34.90
2018-11-20T00:07:47.209Z,30.50
2018-11-20T00:10:34.109Z,32.87
2018-11-20T00:13:22.632Z,34.00
2018-11-20T00:16:11.418Z,31.43
2018-11-20T00:19:00.529Z,31.90
2018-11-20T00:21:58.142Z,31.20
2018-11-20T00:24:45.443Z,31.47
2018-11-20T00:27:52.007Z,28.43
2018-11-20T00:30:34.704Z,33.80
2018-11-20T00:33:23.256Z,33.10
2018-11-20T00:36:15.324Z,30.83
2018-11-20T00:38:56.853Z,31.63
2018-11-20T00:41:45.512Z,30.00
2018-11-20T00:44:42.664Z,31.33
2018-11-20T00:47:39.932Z,32.27
2018-11-20T00:50:35.943Z,32.30
2018-11-20T00:53:36.650Z,29.50
2018-11-20T00:56:47.969Z,33.97
2018-11-20T00:59:45.006Z,30.57
2018-11-20T01:02:31.626Z,31.77
2018-11-20T01:05:22.523Z,29.17
2018-11-20T01:08:09.020Z,28.97
2018-11-20T01:10:57.278Z,30.60
2018-11-20T01:13:45.516Z,31.03
2018-11-20T01:16:32.176Z,31.20
2018-11-20T01:19:12.353Z,29.03
2018-11-20T01:22:07.671Z,30.70
2018-11-20T01:24:58.694Z,30.13
2018-11-20T01:27:45.747Z,26.83
2018-11-20T01:30:32.453Z,30.77
2018-11-20T01:33:24.320Z,29.30
2018-11-20T01:36:07.203Z,31.10
2018-11-20T01:38:44.253Z,29.67
2018-11-20T01:41:24.404Z,30.27
2018-11-20T01:44:18.229Z,27.53
2018-11-20T01:47:10.646Z,30.17
2018-11-20T01:49:58.876Z,28.70
2018-11-20T01:52:45.834Z,29.57
2018-11-20T01:55:32.693Z,29.27
2018-11-20T01:58:20.970Z,29.90
2018-11-20T02:01:09.878Z,28.37
2018-11-20T02:04:01.458Z,29.00
2018-11-20T02:06:54.622Z,28.17
2018-11-20T02:09:51.820Z,26.10
2018-11-20T02:12:36.119Z,29.10
2018-11-20T02:15:23.044Z,26.37
2018-11-20T02:18:14.541Z,28.87
2018-11-20T02:21:03.345Z,28.77
2018-11-20T02:24:09.571Z,26.47
2018-11-20T02:26:50.456Z,28.03
2018-11-20T02:29:50.768Z,25.93
2018-11-20T02:32:31.741Z,30.37
2018-11-20T02:35:22.607Z,29.43
2018-11-20T02:38:03.710Z,26.83
2018-11-20T02:41:06.881Z,26.60
2018-11-20T02:43:55.173Z,27.60
2018-11-20T02:46:41.625Z,26.90
2018-11-20T02:49:36.357Z,25.83
2018-11-20T02:52:23.950Z,28.57
2018-11-20T02:55:10.954Z,26.40
2018-11-20T02:58:02.841Z,27.53
2018-11-20T03:00:49.398Z,25.83
2018-11-20T03:03:36.243Z,25.00
2018-11-20T03:06:23.305Z,26.13
2018-11-20T03:09:09.820Z,24.83
2018-11-20T03:11:55.069Z,26.07
2018-11-20T03:14:35.014Z,23.47
2018-11-20T03:17:26.107Z,26.60
2018-11-20T03:20:20.736Z,23.47
2018-11-20T03:23:23.835Z,25.67
2018-11-20T03:26:17.439Z,23.70
2018-11-20T03:29:20.963Z,26.33
2018-11-20T03:32:09.225Z,23.83
2018-11-20T03:34:52.450Z,25.00
2018-11-20T03:37:38.961Z,24.83
2018-11-20T03:40:25.953Z,26.93
2018-11-20T03:43:03.800Z,24.13
2018-11-20T03:45:50.684Z,25.17
2018-11-20T03:48:37.594Z,26.00
2018-11-20T03:51:23.552Z,24.47
2018-11-20T03:54:10.222Z,23.57
2018-11-20T03:56:57.059Z,25.03
2018-11-20T03:59:45.345Z,25.70
2018-11-20T04:02:33.631Z,25.70
2018-11-20T04:05:33.901Z,25.87
2018-11-20T04:08:19.073Z,25.13
2018-11-20T04:11:10.280Z,24.33
2018-11-20T04:13:52.488Z,23.43
2018-11-20T04:16:38.210Z,24.90
2018-11-20T04:19:38.234Z,25.40
2018-11-20T04:22:25.310Z,23.93
2018-11-20T04:25:12.137Z,23.77
2018-11-20T04:28:12.420Z,24.50
2018-11-20T04:31:48.276Z,24.10
2018-11-20T04:34:34.854Z,25.27
2018-11-20T04:37:23.646Z,25.13
2018-11-20T04:40:17.717Z,25.00
2018-11-20T04:43:15.879Z,24.50
2018-11-20T04:46:13.897Z,24.20
2018-11-20T04:49:05.189Z,22.90
2018-11-20T04:51:53.456Z,22.67
2018-11-20T04:54:40.192Z,22.50
2018-11-20T04:57:21.625Z,21.97
2018-11-20T05:00:08.399Z,22.67
2018-11-20T05:03:14.370Z,23.73
2018-11-20T05:06:09.179Z,21.90
2018-11-20T05:08:55.915Z,22.53
2018-11-20T05:11:47.248Z,21.50
2018-11-20T05:14:47.628Z,21.43
2018-11-20T05:17:34.499Z,21.27
2018-11-20T05:20:25.520Z,20.87
2018-11-20T05:23:17.077Z,20.87
2018-11-20T05:26:10.953Z,21.50
2018-11-20T05:29:01.796Z,19.37
2018-11-20T05:31:49.548Z,19.83
2018-11-20T05:34:31.106Z,20.13
2018-11-20T05:37:09.514Z,18.60
2018-11-20T05:39:47.961Z,18.07
2018-11-20T05:42:34.689Z,16.63
2018-11-20T05:45:26.004Z,20.00
2018-11-20T05:48:07.626Z,20.93
2018-11-20T05:51:01.441Z,18.57
2018-11-20T05:53:47.976Z,18.63
2018-11-20T05:56:41.870Z,13.27
2018-11-20T05:59:45.037Z,12.20
2018-11-20T06:02:44.621Z,13.23
2018-11-20T06:05:23.173Z,11.80
2018-11-20T06:08:17.479Z,9.40
2018-11-20T06:11:11.747Z,9.40
2018-11-20T06:14:02.807Z,9.00
2018-11-20T06:16:44.723Z,8.80
2018-11-20T06:19:33.178Z,8.87
2018-11-20T06:22:27.614Z,8.73
2018-11-20T06:25:14.031Z,9.20
2018-11-20T06:28:14.520Z,9.43
2018-11-20T06:31:01.238Z,10.30
2018-11-20T06:33:49.653Z,10.07
2018-11-20T06:36:25.590Z,9.27
2018-11-20T06:39:07.567Z,11.93
2018-11-20T06:41:54.200Z,10.83
2018-11-20T06:44:40.956Z,9.63
2018-11-20T06:47:27.427Z,10.70
2018-11-20T06:50:15.702Z,13.50
2018-11-20T06:52:59.854Z,12.60
2018-11-20T06:55:46.751Z,10.00
2018-11-20T06:58:30.674Z,10.53
2018-11-20T07:01:22.009Z,10.37
2018-11-20T07:04:03.590Z,15.17
2018-11-20T07:07:06.754Z,11.60
2018-11-20T07:09:53.376Z,9.73
2018-11-20T07:12:40.004Z,10.47
2018-11-20T07:15:43.080Z,11.20
2018-11-20T07:18:29.814Z,11.20
2018-11-20T07:21:33.109Z,14.97
2018-11-20T07:24:21.653Z,10.43
2018-11-20T07:27:07.022Z,10.90
2018-11-20T07:30:01.220Z,10.20
2018-11-20T07:32:58.344Z,10.43
2018-11-20T07:35:39.452Z,10.27
2018-11-20T07:38:26.130Z,14.40
2018-11-20T07:41:17.053Z,13.53
2018-11-20T07:44:11.253Z,16.70
2018-11-20T07:47:02.312Z,16.07
2018-11-20T07:49:49.643Z,20.90
2018-11-20T07:52:40.880Z,17.73
2018-11-20T07:55:37.909Z,15.57
2018-11-20T07:58:41.100Z,20.37
2018-11-20T08:01:18.388Z,19.17
2018-11-20T08:04:24.579Z,18.00
2018-11-20T08:07:14.863Z,16.20
2018-11-20T08:10:02.275Z,15.67
2018-11-20T08:12:59.095Z,19.77
2018-11-20T08:18:39.700Z,16.77
2018-11-20T08:21:30.762Z,16.60
2018-11-20T08:24:17.681Z,16.83
2018-11-20T08:27:08.687Z,15.33
2018-11-20T08:29:55.356Z,16.00
2018-11-20T08:32:43.677Z,17.90
2018-11-20T08:35:20.309Z,17.27
2018-11-20T08:38:04.750Z,18.77
2018-11-20T08:40:54.734Z,21.53
2018-11-20T08:43:44.918Z,16.47
2018-11-20T08:46:31.801Z,20.97
2018-11-20T08:49:18.762Z,19.73
2018-11-20T08:52:05.572Z,20.37
2018-11-20T08:54:52.504Z,19.00
2018-11-20T08:57:46.305Z,23.33
2018-11-20T09:00:32.907Z,20.80
2018-11-20T09:03:21.259Z,17.73
2018-11-20T09:06:13.736Z,20.23
2018-11-20T09:08:58.796Z,20.07
2018-11-20T09:11:49.403Z,15.97
2018-11-20T09:14:46.557Z,15.23
2018-11-20T09:17:33.270Z,15.30
2018-11-20T09:20:24.453Z,18.03
2018-11-20T09:23:15.490Z,15.97
2018-11-20T09:26:16.157Z,16.27
2018-11-20T09:29:16.078Z,17.67
2018-11-20T09:32:13.105Z,15.83
2018-11-20T09:35:19.662Z,17.27
2018-11-20T09:38:04.882Z,14.67
2018-11-20T09:41:04.711Z,19.43
2018-11-20T09:44:06.174Z,22.67
2018-11-20T09:46:53.157Z,20.00
2018-11-20T09:49:31.445Z,16.10
2018-11-20T09:52:17.967Z,16.40
2018-11-20T09:55:14.969Z,15.70
2018-11-20T09:57:55.515Z,17.73
2018-11-20T10:00:42.321Z,18.30
2018-11-20T10:03:18.431Z,16.10
2018-11-20T10:05:58.120Z,17.60
2018-11-20T10:08:37.118Z,15.87
2018-11-20T10:11:25.457Z,15.17
2018-11-20T10:14:09.053Z,20.47
2018-11-20T10:16:49.830Z,17.73
2018-11-20T10:19:41.176Z,15.07
2018-11-20T10:22:31.644Z,17.47
2018-11-20T10:25:22.454Z,15.70
2018-11-20T10:28:08.967Z,15.13
2018-11-20T10:30:55.574Z,16.03
2018-11-20T10:33:57.881Z,14.33
2018-11-20T10:36:44.779Z,14.63
2018-11-20T10:39:41.830Z,15.00
2018-11-20T10:42:28.736Z,18.63
2018-11-20T10:45:15.388Z,15.37
2018-11-20T10:48:15.611Z,7.17
2018-11-20T10:51:02.395Z,5.80
2018-11-20T10:53:50.353Z,6.00
2018-11-20T10:56:49.348Z,4.67
2018-11-20T10:59:43.506Z,6.33
2018-11-20T11:02:30.051Z,5.40
2018-11-20T11:05:17.033Z,4.50
2018-11-20T11:08:03.674Z,5.27
2018-11-20T11:10:57.616Z,5.40
2018-11-20T11:13:48.314Z,5.00
2018-11-20T11:16:45.225Z,4.77
2018-11-20T11:19:48.393Z,5.10
2018-11-20T11:22:36.863Z,4.70
2018-11-20T11:25:34.504Z,4.60
2018-11-20T11:28:19.335Z,5.37
2018-11-20T11:31:02.109Z,4.57
2018-11-20T11:33:58.189Z,4.60
2018-11-20T11:36:46.424Z,5.17
2018-11-20T11:39:37.551Z,4.40
2018-11-20T11:42:31.519Z,4.90
2018-11-20T11:45:37.824Z,4.80
2018-11-20T11:48:25.036Z,4.93
2018-11-20T11:51:15.787Z,4.57
2018-11-20T11:54:02.496Z,5.23
2018-11-20T11:56:46.852Z,4.20
2018-11-20T11:59:49.945Z,4.60
2018-11-20T12:05:30.425Z,4.73
2018-11-20T12:08:36.859Z,3.90
2018-11-20T12:11:30.685Z,4.30
2018-11-20T12:14:17.150Z,3.97
2018-11-20T12:17:03.618Z,4.10
2018-11-20T12:19:52.845Z,4.47
2018-11-20T12:22:46.759Z,6.07
2018-11-20T12:25:26.757Z,6.30
2018-11-20T12:28:14.667Z,3.90
2018-11-20T12:31:00.492Z,4.47
2018-11-20T12:34:54.404Z,4.20
2018-11-20T12:37:56.404Z,4.33
2018-11-20T12:40:58.684Z,4.20
2018-11-20T12:43:46.100Z,4.17
2018-11-20T12:46:34.629Z,4.10
2018-11-20T12:49:33.461Z,4.30
2018-11-20T12:52:23.874Z,3.53
2018-11-20T12:55:08.292Z,3.73
2018-11-20T12:57:55.965Z,3.43
2018-11-20T13:00:43.389Z,6.60
2018-11-20T13:03:47.030Z,3.20
2018-11-20T13:06:34.664Z,3.90
2018-11-20T13:09:22.188Z,5.53
2018-11-20T13:12:09.857Z,4.00
2018-11-20T13:15:16.767Z,4.20
2018-11-20T13:18:05.933Z,4.50
2018-11-20T13:20:52.541Z,3.80
2018-11-20T13:26:42.514Z,3.90
2018-11-20T13:29:49.552Z,3.80
2018-11-20T13:32:47.123Z,3.77
2018-11-20T13:35:34.827Z,4.83
2018-11-20T13:38:41.728Z,3.73
2018-11-20T13:41:49.467Z,4.20
2018-11-20T13:47:39.150Z,4.00
2018-11-20T13:50:46.000Z,3.80
2018-11-20T13:53:33.473Z,4.30
2018-11-20T13:59:14.105Z,4.20
2018-11-20T14:02:01.736Z,4.30
2018-11-20T14:04:49.320Z,4.30
2018-11-20T14:07:49.670Z,4.03
2018-11-20T14:10:37.432Z,4.13
2018-11-20T14:13:25.054Z,4.20
2018-11-20T14:16:17.777Z,4.27
2018-11-20T14:19:05.604Z,4.10
2018-11-20T14:24:53.014Z,4.70
2018-11-20T14:27:40.410Z,4.03
2018-11-20T14:30:29.460Z,4.23
2018-11-20T14:33:29.413Z,4.53
2018-11-20T14:36:30.518Z,4.70
2018-11-20T14:39:30.659Z,4.23
2018-11-20T14:42:18.187Z,4.67
2018-11-20T14:45:06.158Z,4.70
2018-11-20T14:47:44.255Z,4.63
2018-11-20T14:50:34.690Z,4.70
2018-11-20T14:53:41.553Z,4.57
2018-11-20T14:56:16.381Z,7.60
2018-11-20T14:59:04.125Z,4.77
2018-11-20T15:01:44.960Z,4.90
2018-11-20T15:04:32.567Z,7.03
2018-11-20T15:07:39.433Z,7.73
2018-11-20T15:10:27.242Z,8.47
2018-11-20T15:13:14.723Z,9.17
2018-11-20T15:16:05.001Z,10.13
2018-11-20T15:18:52.464Z,9.63
2018-11-20T15:21:59.440Z,9.93
2018-11-20T15:24:47.131Z,9.97
2018-11-20T15:27:34.599Z,10.83
2018-11-20T15:33:13.272Z,11.10
2018-11-20T15:36:23.256Z,10.73
2018-11-20T15:39:10.751Z,11.57
2018-11-20T15:41:58.222Z,10.87
2018-11-20T15:44:58.487Z,12.67
2018-11-20T15:47:36.538Z,11.40
2018-11-20T15:50:26.094Z,12.13
2018-11-20T15:53:13.674Z,11.63
2018-11-20T15:56:05.465Z,12.50
2018-11-20T15:58:52.912Z,11.40
2018-11-20T16:01:40.332Z,11.50
2018-11-20T16:04:28.170Z,11.67
2018-11-20T16:07:15.655Z,11.27
2018-11-20T16:10:03.594Z,12.33
2018-11-20T16:12:51.044Z,12.00
2018-11-20T16:15:38.465Z,13.80
2018-11-20T16:18:25.973Z,11.67
2018-11-20T16:21:13.680Z,12.27
2018-11-20T16:24:20.600Z,12.80
2018-11-20T16:27:18.607Z,12.37
2018-11-20T16:30:06.247Z,13.07
2018-11-20T16:32:53.838Z,13.20
2018-11-20T16:35:41.604Z,12.20
2018-11-20T16:38:26.328Z,13.10
2018-11-20T16:41:13.735Z,12.80
2018-11-20T16:44:01.212Z,12.40
2018-11-20T16:46:48.850Z,15.23
2018-11-20T16:49:36.292Z,13.30
2018-11-20T16:52:23.896Z,12.87
2018-11-20T16:55:11.630Z,12.73
2018-11-20T16:57:59.109Z,12.23
2018-11-20T17:00:46.635Z,14.73
2018-11-20T17:03:52.616Z,13.63
2018-11-20T17:06:59.005Z,14.17
2018-11-20T17:09:47.175Z,14.03
2018-11-20T17:12:24.842Z,13.07
2018-11-20T17:15:31.990Z,14.77
2018-11-20T17:18:39.114Z,14.27
2018-11-20T17:21:45.952Z,13.07
2018-11-20T17:24:33.387Z,14.70
2018-11-20T17:27:33.343Z,15.37
2018-11-20T17:30:21.008Z,13.67
2018-11-20T17:33:08.481Z,13.43
2018-11-20T17:36:11.301Z,14.80
2018-11-20T17:39:10.808Z,15.37
2018-11-20T17:42:17.271Z,13.33
2018-11-20T17:45:20.614Z,13.10
2018-11-20T17:48:19.043Z,13.33
2018-11-20T17:51:25.880Z,15.67
2018-11-20T17:54:25.281Z,15.17
2018-11-20T17:57:25.078Z,14.10
2018-11-20T18:00:12.582Z,14.23
2018-11-20T18:03:00.106Z,14.67
2018-11-20T18:06:07.254Z,14.90
2018-11-20T18:09:07.495Z,14.07
2018-11-20T18:12:07.682Z,14.83
2018-11-20T18:14:55.234Z,13.43
2018-11-20T18:17:36.156Z,14.07
2018-11-20T18:20:32.896Z,15.70
2018-11-20T18:23:38.991Z,14.87
2018-11-20T18:26:39.253Z,14.77
2018-11-20T18:29:38.889Z,14.00
2018-11-20T18:32:39.383Z,14.77
2018-11-20T18:35:39.520Z,14.30
2018-11-20T18:38:31.393Z,14.30
2018-11-20T18:41:19.137Z,16.20
2018-11-20T18:44:18.859Z,14.90
2018-11-20T18:50:18.220Z,15.43
2018-11-20T18:53:12.050Z,14.30
2018-11-20T18:56:00.653Z,14.07
2018-11-20T18:59:00.490Z,16.37
2018-11-20T19:01:53.112Z,15.20
2018-11-20T19:04:40.852Z,16.83
2018-11-20T19:07:43.891Z,16.57
2018-11-20T19:13:23.423Z,16.33
2018-11-20T19:16:23.666Z,17.63
2018-11-20T19:19:26.191Z,15.80
2018-11-20T19:22:26.568Z,15.40
2018-11-20T19:25:20.428Z,14.77
2018-11-20T19:28:20.579Z,16.43
2018-11-20T19:31:23.370Z,15.27
2018-11-20T19:34:23.445Z,16.00
2018-11-20T19:37:35.335Z,16.17
2018-11-20T19:40:26.281Z,15.27
2018-11-20T19:43:10.428Z,15.70
2018-11-20T19:46:08.793Z,14.03
2018-11-20T19:48:46.898Z,14.83
2018-11-20T19:51:31.576Z,13.77
2018-11-20T19:54:28.173Z,14.97
2018-11-20T19:57:24.450Z,14.60
2018-11-20T20:00:14.671Z,14.83
2018-11-20T20:03:00.580Z,16.53
2018-11-20T20:05:48.779Z,15.20
2018-11-20T20:08:32.503Z,15.53
2018-11-20T20:11:27.846Z,15.47
2018-11-20T20:14:13.550Z,13.40
2018-11-20T20:16:59.803Z,14.63
2018-11-20T20:19:47.672Z,15.03
2018-11-20T20:22:38.042Z,13.47
2018-11-20T20:25:23.838Z,14.67
2018-11-20T20:28:20.156Z,13.80
2018-11-20T20:31:06.364Z,13.53
2018-11-20T20:33:59.815Z,14.50
2018-11-20T20:36:47.476Z,14.57
2018-11-20T20:39:35.176Z,13.40
2018-11-20T20:42:28.534Z,13.97
2018-11-20T20:45:18.628Z,13.53
2018-11-20T20:48:09.071Z,13.07
2018-11-20T20:50:47.334Z,13.17
2018-11-20T20:53:33.339Z,13.00
2018-11-20T20:56:28.362Z,13.60
2018-11-20T20:59:17.676Z,12.93
2018-11-20T21:02:05.225Z,12.37
2018-11-20T21:05:04.863Z,13.00
2018-11-20T21:07:47.209Z,13.93
2018-11-20T21:10:24.030Z,12.13
2018-11-20T21:13:10.226Z,12.07
2018-11-20T21:16:15.830Z,12.50
2018-11-20T21:19:09.488Z,13.23
2018-11-20T21:21:55.591Z,13.40
2018-11-20T21:24:45.963Z,13.20
2018-11-20T21:27:51.226Z,12.53
2018-11-20T21:30:47.452Z,13.03
2018-11-20T21:33:38.063Z,14.10
2018-11-20T21:36:34.685Z,12.93
2018-11-20T21:39:26.475Z,13.53
2018-11-20T21:42:23.838Z,13.63
2018-11-20T21:45:15.557Z,14.17
2018-11-20T21:47:48.489Z,15.47
2018-11-20T21:50:34.662Z,13.70
2018-11-20T21:53:20.757Z,14.00
2018-11-20T21:56:06.824Z,13.73
2018-11-20T21:58:59.319Z,13.87
2018-11-20T22:02:01.674Z,13.53
2018-11-20T22:04:48.161Z,13.13
2018-11-20T22:07:30.632Z,13.70
2018-11-20T22:10:21.392Z,13.80
2018-11-20T22:13:08.874Z,12.93
2018-11-20T22:15:54.595Z,14.37
2018-11-20T22:18:40.223Z,16.47
2018-11-20T22:21:23.045Z,17.77
2018-11-20T22:24:10.533Z,15.97
2018-11-20T22:26:52.427Z,15.83
2018-11-20T22:29:27.035Z,14.77
2018-11-20T22:32:20.342Z,15.33
2018-11-20T22:35:17.637Z,14.83
2018-11-20T22:37:54.195Z,15.07
2018-11-20T22:40:40.139Z,14.87
2018-11-20T22:43:26.530Z,16.50
2018-11-20T22:46:23.785Z,15.90
2018-11-20T22:49:23.015Z,14.40
2018-11-20T22:52:22.566Z,15.13
2018-11-20T22:55:15.931Z,15.67
2018-11-20T22:57:57.091Z,15.47
2018-11-20T23:00:41.385Z,14.30
2018-11-20T23:03:27.247Z,15.70
2018-11-20T23:06:25.618Z,14.53
2018-11-20T23:08:54.037Z,15.57
2018-11-20T23:11:22.830Z,19.13
2018-11-20T23:13:51.183Z,16.10
2018-11-20T23:16:19.462Z,14.83
2018-11-20T23:18:47.739Z,16.13
2018-11-20T23:21:16.100Z,15.83
2018-11-20T23:23:44.406Z,15.57
2018-11-20T23:26:12.695Z,14.73
2018-11-20T23:28:41.137Z,15.23
2018-11-20T23:31:09.451Z,14.93
2018-11-20T23:33:37.732Z,16.23
2018-11-20T23:36:06.785Z,14.90
2018-11-20T23:38:35.087Z,16.50
2018-11-20T23:41:03.441Z,15.57
2018-11-20T23:43:32.226Z,15.87
2018-11-20T23:46:00.638Z,17.03
2018-11-20T23:48:28.899Z,14.63
2018-11-20T23:50:57.344Z,17.30
2018-11-20T23:53:25.677Z,14.43
2018-11-20T23:55:53.962Z,15.30
2018-11-20T23:58:22.263Z,16.57
